createdAt,value
2019-02-05T00:00:57.719Z,9.90
2019-02-05T00:03:27.112Z,9.90
2019-02-05T00:05:56.427Z,9.90
2019-02-05T00:08:25.870Z,9.90
2019-02-05T00:10:55.839Z,9.90
2019-02-05T00:13:25.314Z,9.80
2019-02-05T00:15:54.702Z,9.80
2019-02-05T00:18:24.147Z,9.90
2019-02-05T00:20:53.523Z,9.90
2019-02-05T00:23:23.282Z,9.80
2019-02-05T00:25:52.948Z,9.80
2019-02-05T00:28:22.408Z,9.80
2019-02-05T00:30:51.872Z,9.80
2019-02-05T00:33:21.442Z,9.80
2019-02-05T00:35:50.763Z,9.80
2019-02-05T00:38:20.097Z,9.80
2019-02-05T00:40:49.714Z,9.80
2019-02-05T00:43:19.122Z,9.80
2019-02-05T00:45:48.587Z,9.80
2019-02-05T00:48:18.422Z,9.80
2019-02-05T00:50:48.779Z,9.70
2019-02-05T00:53:18.339Z,9.70
2019-02-05T00:55:47.732Z,9.60
2019-02-05T00:58:17.145Z,9.60
2019-02-05T01:00:46.676Z,9.50
2019-02-05T01:03:16.115Z,9.50
2019-02-05T01:05:45.485Z,9.50
2019-02-05T01:08:14.823Z,9.50
2019-02-05T01:10:44.224Z,9.50
2019-02-05T01:13:13.916Z,9.40
2019-02-05T01:15:43.236Z,9.40
2019-02-05T01:18:13.077Z,9.30
2019-02-05T01:20:42.534Z,9.30
2019-02-05T01:23:11.847Z,9.30
2019-02-05T01:25:41.223Z,9.30
2019-02-05T01:28:10.917Z,9.30
2019-02-05T01:30:40.237Z,9.30
2019-02-05T01:33:09.588Z,9.20
2019-02-05T01:35:38.914Z,9.10
2019-02-05T01:38:08.632Z,9.10
2019-02-05T01:40:37.993Z,9.10
2019-02-05T01:43:07.331Z,9.10
2019-02-05T01:45:36.722Z,9.20
2019-02-05T01:48:06.263Z,9.20
2019-02-05T01:50:35.570Z,9.20
2019-02-05T01:53:05.660Z,9.10
2019-02-05T01:55:35.073Z,9.10
2019-02-05T01:58:04.474Z,8.90
2019-02-05T02:00:35.005Z,8.80
2019-02-05T02:03:04.486Z,8.90
2019-02-05T02:05:33.879Z,8.90
2019-02-05T02:08:03.711Z,8.90
2019-02-05T02:10:33.063Z,8.90
2019-02-05T02:13:02.391Z,8.80
2019-02-05T02:15:32.240Z,8.80
2019-02-05T02:18:01.797Z,8.90
2019-02-05T02:20:31.110Z,8.80
2019-02-05T02:23:00.794Z,8.70
2019-02-05T02:25:30.237Z,8.70
2019-02-05T02:27:59.565Z,8.70
2019-02-05T02:30:37.189Z,8.70
2019-02-05T02:33:06.661Z,8.70
2019-02-05T02:35:36.671Z,8.60
2019-02-05T02:38:06.017Z,8.60
2019-02-05T02:40:35.777Z,8.50
2019-02-05T02:43:05.090Z,8.40
2019-02-05T02:45:34.893Z,8.30
2019-02-05T02:48:04.343Z,8.30
2019-02-05T02:50:34.156Z,8.40
2019-02-05T02:53:03.601Z,8.40
2019-02-05T02:55:32.999Z,8.40
2019-02-05T02:58:02.334Z,8.30
2019-02-05T03:00:31.695Z,8.30
2019-02-05T03:03:01.072Z,8.30
2019-02-05T03:05:30.942Z,8.20
2019-02-05T03:08:00.424Z,8.30
2019-02-05T03:10:30.807Z,8.40
2019-02-05T03:13:00.214Z,8.40
2019-02-05T03:15:29.661Z,8.40
2019-02-05T03:17:59.104Z,8.40
2019-02-05T03:20:28.893Z,8.30
2019-02-05T03:22:58.308Z,8.20
2019-02-05T03:25:28.111Z,8.30
2019-02-05T03:27:57.506Z,8.20
2019-02-05T03:30:27.230Z,8.30
2019-02-05T03:32:57.399Z,8.30
2019-02-05T03:35:26.904Z,8.30
2019-02-05T03:37:56.714Z,8.20
2019-02-05T03:40:29.654Z,8.20
2019-02-05T03:42:59.208Z,8.20
2019-02-05T03:45:29.548Z,8.20
2019-02-05T03:48:03.875Z,8.10
2019-02-05T03:50:39.089Z,8.10
2019-02-05T03:53:26.701Z,8.00
2019-02-05T03:56:05.388Z,8.00
2019-02-05T03:58:50.141Z,8.10
2019-02-05T04:01:35.050Z,8.00
2019-02-05T04:04:07.707Z,8.00
2019-02-05T04:06:46.358Z,8.00
2019-02-05T04:09:47.979Z,8.00
2019-02-05T04:12:35.321Z,8.00
2019-02-05T04:15:29.047Z,8.00
2019-02-05T04:18:13.797Z,8.00
2019-02-05T04:20:47.343Z,8.00
2019-02-05T04:23:44.623Z,8.10
2019-02-05T04:26:29.034Z,8.00
2019-02-05T04:29:13.944Z,8.00
2019-02-05T04:32:05.956Z,7.90
2019-02-05T04:34:54.956Z,7.80
2019-02-05T04:37:36.085Z,7.70
2019-02-05T04:40:35.792Z,7.70
2019-02-05T04:43:31.518Z,7.80
2019-02-05T04:46:09.532Z,7.90
2019-02-05T04:48:45.171Z,7.80
2019-02-05T04:51:36.410Z,7.80
2019-02-05T04:54:20.841Z,7.90
2019-02-05T04:56:59.452Z,7.80
2019-02-05T04:59:47.127Z,7.80
2019-02-05T05:02:34.381Z,7.70
2019-02-05T05:05:09.953Z,7.70
2019-02-05T05:07:51.414Z,7.70
2019-02-05T05:10:20.805Z,7.70
2019-02-05T05:12:50.132Z,7.70
2019-02-05T05:15:19.490Z,7.70
2019-02-05T05:17:48.929Z,7.70
2019-02-05T05:20:18.261Z,7.60
2019-02-05T05:22:48.082Z,7.70
2019-02-05T05:25:17.856Z,7.60
2019-02-05T05:27:47.387Z,7.60
2019-02-05T05:30:17.423Z,7.60
2019-02-05T05:32:46.810Z,7.60
2019-02-05T05:35:16.267Z,7.60
2019-02-05T05:37:45.669Z,7.60
2019-02-05T05:40:15.136Z,7.60
2019-02-05T05:42:44.911Z,7.60
2019-02-05T05:45:14.849Z,7.60
2019-02-05T05:47:44.222Z,7.60
2019-02-05T05:50:14.956Z,7.60
2019-02-05T05:52:44.775Z,7.60
2019-02-05T05:55:15.240Z,7.60
2019-02-05T05:57:44.659Z,7.60
2019-02-05T06:00:19.254Z,7.60
2019-02-05T06:02:47.958Z,7.60
2019-02-05T06:05:18.983Z,7.60
2019-02-05T06:07:48.563Z,7.60
2019-02-05T06:10:18.602Z,7.50
2019-02-05T06:12:49.118Z,7.50
2019-02-05T06:15:18.485Z,7.40
2019-02-05T06:17:48.113Z,7.40
2019-02-05T06:20:19.571Z,7.40
2019-02-05T06:22:49.000Z,7.40
2019-02-05T06:25:18.732Z,7.30
2019-02-05T06:27:48.499Z,7.40
2019-02-05T06:30:18.338Z,7.20
2019-02-05T06:32:47.711Z,6.10
2019-02-05T06:35:17.137Z,5.50
2019-02-05T06:37:46.524Z,5.20
2019-02-05T06:40:20.541Z,5.10
2019-02-05T06:42:49.937Z,5.20
2019-02-05T06:45:19.319Z,5.10
2019-02-05T06:47:48.677Z,5.00
2019-02-05T06:50:18.216Z,4.70
2019-02-05T06:52:47.624Z,4.40
2019-02-05T06:55:17.141Z,4.60
2019-02-05T06:57:46.538Z,4.80
2019-02-05T07:00:23.833Z,4.90
2019-02-05T07:02:53.541Z,4.90
2019-02-05T07:05:23.266Z,5.00
2019-02-05T07:07:53.006Z,4.80
2019-02-05T07:10:24.323Z,5.00
2019-02-05T07:12:53.636Z,5.50
2019-02-05T07:15:23.087Z,6.50
2019-02-05T07:17:52.832Z,8.00
2019-02-05T07:20:22.159Z,9.00
2019-02-05T07:22:51.959Z,10.40
2019-02-05T07:25:22.678Z,11.50
2019-02-05T07:27:52.098Z,12.00
2019-02-05T07:30:24.043Z,12.30
2019-02-05T07:32:53.515Z,12.80
2019-02-05T07:35:22.971Z,13.20
2019-02-05T07:37:52.363Z,13.60
2019-02-05T07:40:23.043Z,14.10
2019-02-05T07:42:52.433Z,15.20
2019-02-05T07:45:23.235Z,14.70
2019-02-05T07:47:53.057Z,14.70
2019-02-05T07:50:25.273Z,15.60
2019-02-05T07:52:54.812Z,16.30
2019-02-05T07:55:24.615Z,14.80
2019-02-05T07:57:53.954Z,14.30
2019-02-05T08:00:30.499Z,13.70
2019-02-05T08:03:00.189Z,13.90
2019-02-05T08:05:34.010Z,14.40
2019-02-05T08:08:04.270Z,14.60
2019-02-05T08:10:33.862Z,15.20
2019-02-05T08:13:03.685Z,13.90
2019-02-05T08:15:36.335Z,13.50
2019-02-05T08:18:06.139Z,13.60
2019-02-05T08:20:35.681Z,13.40
2019-02-05T08:23:05.095Z,13.80
2019-02-05T08:25:34.557Z,13.80
2019-02-05T08:28:04.590Z,13.60
2019-02-05T08:30:37.323Z,14.20
2019-02-05T08:33:06.920Z,15.40
2019-02-05T08:35:36.261Z,15.40
2019-02-05T08:38:05.699Z,15.20
2019-02-05T08:40:36.293Z,15.70
2019-02-05T08:43:06.337Z,16.00
2019-02-05T08:45:37.655Z,16.90
2019-02-05T08:48:09.426Z,16.40
2019-02-05T08:50:38.798Z,16.50
2019-02-05T08:53:08.209Z,16.80
2019-02-05T08:55:37.533Z,17.10
2019-02-05T08:58:12.501Z,17.40
2019-02-05T09:00:42.745Z,16.80
2019-02-05T09:03:12.611Z,16.90
2019-02-05T09:05:41.977Z,17.40
2019-02-05T09:08:11.848Z,17.70
2019-02-05T09:10:42.408Z,18.10
2019-02-05T09:13:12.674Z,17.20
2019-02-05T09:15:41.996Z,16.10
2019-02-05T09:18:11.452Z,15.30
2019-02-05T09:20:40.915Z,14.90
2019-02-05T09:23:10.231Z,14.30
2019-02-05T09:25:39.718Z,14.30
2019-02-05T09:28:09.596Z,15.20
2019-02-05T09:30:39.015Z,17.20
2019-02-05T09:33:14.260Z,18.60
2019-02-05T09:35:43.678Z,19.40
2019-02-05T09:38:13.452Z,20.30
2019-02-05T09:40:42.839Z,20.60
2019-02-05T09:43:12.174Z,20.20
2019-02-05T09:45:41.723Z,21.50
2019-02-05T09:48:11.491Z,22.40
2019-02-05T09:50:44.679Z,23.00
2019-02-05T09:53:11.969Z,23.10
2019-02-05T09:55:41.383Z,22.70
2019-02-05T09:58:10.696Z,22.50
2019-02-05T10:00:41.118Z,22.40
2019-02-05T10:03:10.515Z,23.20
2019-02-05T10:05:39.924Z,23.50
2019-02-05T10:08:10.476Z,23.70
2019-02-05T10:10:39.803Z,24.20
2019-02-05T10:13:09.284Z,24.10
2019-02-05T10:15:41.419Z,23.60
2019-02-05T10:18:12.810Z,23.30
2019-02-05T10:20:42.249Z,24.50
2019-02-05T10:23:11.647Z,24.80
2019-02-05T10:25:54.119Z,26.00
2019-02-05T10:28:23.833Z,25.60
2019-02-05T10:30:53.321Z,25.70
2019-02-05T10:33:22.944Z,25.90
2019-02-05T10:35:52.753Z,26.00
2019-02-05T10:38:22.470Z,25.50
2019-02-05T10:40:52.023Z,26.80
2019-02-05T10:43:21.343Z,27.30
2019-02-05T10:45:50.820Z,27.40
2019-02-05T10:48:20.285Z,28.00
2019-02-05T10:50:49.691Z,28.20
2019-02-05T10:53:19.498Z,27.20
2019-02-05T10:55:49.080Z,27.40
2019-02-05T10:58:18.473Z,27.10
2019-02-05T11:00:48.277Z,26.60
2019-02-05T11:03:17.721Z,26.90
2019-02-05T11:05:47.327Z,27.40
2019-02-05T11:08:16.799Z,27.30
2019-02-05T11:10:46.234Z,27.40
2019-02-05T11:13:18.816Z,27.10
2019-02-05T11:15:47.270Z,27.20
2019-02-05T11:18:16.642Z,27.60
2019-02-05T11:20:46.413Z,27.60
2019-02-05T11:23:15.946Z,26.90
2019-02-05T11:25:45.362Z,26.30
2019-02-05T11:28:14.737Z,26.10
2019-02-05T11:30:45.108Z,26.00
2019-02-05T11:33:15.639Z,25.30
2019-02-05T11:35:45.351Z,25.10
2019-02-05T11:38:14.811Z,24.60
2019-02-05T11:40:44.274Z,23.20
2019-02-05T11:43:13.668Z,22.00
2019-02-05T11:45:43.065Z,20.90
2019-02-05T11:48:15.060Z,19.80
2019-02-05T11:50:44.751Z,19.00
2019-02-05T11:53:14.083Z,18.50
2019-02-05T11:55:43.640Z,18.10
2019-02-05T11:58:13.035Z,17.90
2019-02-05T12:00:47.036Z,17.30
2019-02-05T12:03:16.780Z,17.00
2019-02-05T12:05:46.188Z,16.70
2019-02-05T12:08:18.488Z,16.20
2019-02-05T12:10:46.860Z,15.90
2019-02-05T12:13:16.334Z,16.00
2019-02-05T12:15:46.347Z,15.60
2019-02-05T12:18:15.840Z,15.50
2019-02-05T12:20:45.825Z,15.50
2019-02-05T12:23:15.180Z,15.50
2019-02-05T12:25:44.703Z,15.50
2019-02-05T12:28:14.386Z,15.60
2019-02-05T12:30:45.507Z,15.50
2019-02-05T12:33:15.075Z,15.50
2019-02-05T12:35:45.465Z,15.40
2019-02-05T12:38:15.279Z,15.40
2019-02-05T12:40:45.594Z,15.30
2019-02-05T12:43:15.088Z,15.40
2019-02-05T12:45:44.403Z,15.40
2019-02-05T12:48:13.792Z,15.40
2019-02-05T12:50:44.149Z,15.20
2019-02-05T12:53:14.666Z,15.30
2019-02-05T12:55:44.025Z,15.10
2019-02-05T12:58:13.884Z,15.10
2019-02-05T13:00:56.626Z,15.20
2019-02-05T13:03:17.174Z,15.30
2019-02-05T13:05:47.198Z,15.20
2019-02-05T13:08:16.574Z,15.20
2019-02-05T13:10:51.234Z,15.20
2019-02-05T13:13:20.559Z,15.10
2019-02-05T13:15:50.013Z,15.00
2019-02-05T13:18:20.552Z,15.10
2019-02-05T13:20:50.036Z,15.00
2019-02-05T13:23:19.439Z,15.00
2019-02-05T13:25:48.821Z,15.00
2019-02-05T13:28:18.241Z,15.10
2019-02-05T13:30:47.633Z,15.10
2019-02-05T13:33:18.228Z,15.20
2019-02-05T13:35:47.547Z,15.10
2019-02-05T13:38:17.167Z,15.10
2019-02-05T13:40:46.697Z,15.10
2019-02-05T13:43:16.441Z,15.10
2019-02-05T13:45:46.246Z,15.10
2019-02-05T13:48:15.703Z,15.00
2019-02-05T13:50:45.027Z,15.10
2019-02-05T13:53:14.487Z,15.00
2019-02-05T13:55:44.072Z,14.90
2019-02-05T13:58:13.477Z,15.00
2019-02-05T14:00:46.561Z,15.00
2019-02-05T14:03:16.372Z,15.00
2019-02-05T14:05:46.083Z,15.00
2019-02-05T14:08:15.701Z,14.90
2019-02-05T14:10:46.754Z,14.90
2019-02-05T14:13:16.543Z,14.90
2019-02-05T14:15:49.563Z,14.80
2019-02-05T14:18:22.176Z,14.80
2019-02-05T14:20:51.806Z,14.80
2019-02-05T14:23:21.802Z,14.80
2019-02-05T14:25:52.153Z,14.70
2019-02-05T14:28:21.530Z,14.70
2019-02-05T14:30:53.006Z,14.70
2019-02-05T14:33:22.374Z,14.60
2019-02-05T14:35:51.849Z,14.70
2019-02-05T14:38:22.274Z,14.70
2019-02-05T14:40:51.679Z,14.60
2019-02-05T14:43:21.067Z,14.50
2019-02-05T14:45:50.947Z,14.50
2019-02-05T14:48:20.341Z,14.40
2019-02-05T14:50:49.655Z,14.40
2019-02-05T14:53:19.411Z,14.30
2019-02-05T14:55:48.741Z,14.30
2019-02-05T14:58:19.255Z,14.20
2019-02-05T15:00:48.668Z,14.20
2019-02-05T15:03:18.139Z,14.20
2019-02-05T15:05:48.010Z,14.20
2019-02-05T15:08:18.054Z,14.20
2019-02-05T15:10:47.434Z,14.20
2019-02-05T15:13:17.653Z,14.20
2019-02-05T15:15:47.166Z,14.10
2019-02-05T15:18:16.870Z,14.00
2019-02-05T15:20:47.811Z,14.00
2019-02-05T15:23:17.394Z,13.80
2019-02-05T15:25:46.779Z,13.80
2019-02-05T15:28:16.109Z,13.80
2019-02-05T15:30:46.056Z,13.80
2019-02-05T15:33:18.245Z,13.70
2019-02-05T15:35:52.407Z,13.60
2019-02-05T15:38:21.829Z,13.60
2019-02-05T15:40:51.573Z,13.60
2019-02-05T15:43:21.454Z,13.60
2019-02-05T15:45:50.922Z,13.50
2019-02-05T15:48:20.319Z,13.50
2019-02-05T15:50:49.657Z,13.40
2019-02-05T15:53:19.045Z,13.40
2019-02-05T15:55:48.774Z,13.30
2019-02-05T15:58:18.189Z,13.30
2019-02-05T16:00:48.715Z,13.20
2019-02-05T16:03:18.409Z,13.10
2019-02-05T16:05:47.942Z,12.90
2019-02-05T16:08:17.410Z,12.90
2019-02-05T16:10:46.795Z,12.80
2019-02-05T16:13:16.645Z,12.70
2019-02-05T16:15:46.038Z,12.60
2019-02-05T16:18:15.751Z,12.40
2019-02-05T16:20:45.580Z,12.30
2019-02-05T16:23:15.695Z,12.20
2019-02-05T16:25:45.492Z,12.10
2019-02-05T16:28:15.312Z,12.00
2019-02-05T16:30:44.650Z,11.80
2019-02-05T16:33:14.312Z,11.70
2019-02-05T16:35:43.848Z,11.60
2019-02-05T16:38:13.313Z,11.50
2019-02-05T16:40:42.719Z,11.30
2019-02-05T16:43:12.360Z,11.10
2019-02-05T16:45:42.852Z,10.90
2019-02-05T16:48:12.279Z,10.90
2019-02-05T16:50:44.318Z,10.90
2019-02-05T16:53:14.182Z,10.80
2019-02-05T16:55:43.648Z,10.60
2019-02-05T16:58:26.684Z,10.50
2019-02-05T17:00:56.065Z,10.40
2019-02-05T17:03:25.883Z,10.20
2019-02-05T17:05:55.905Z,10.20
2019-02-05T17:08:25.320Z,10.20
2019-02-05T17:10:54.628Z,10.10
2019-02-05T17:13:24.535Z,10.10
2019-02-05T17:15:53.914Z,9.90
2019-02-05T17:18:24.150Z,9.80
2019-02-05T17:20:54.239Z,9.70
2019-02-05T17:23:23.573Z,9.60
2019-02-05T17:25:53.036Z,9.60
2019-02-05T17:28:22.536Z,9.30
2019-02-05T17:30:52.011Z,9.30
2019-02-05T17:33:21.494Z,9.20
2019-02-05T17:35:50.973Z,9.10
2019-02-05T17:38:20.349Z,9.10
2019-02-05T17:40:50.077Z,8.90
2019-02-05T17:43:20.660Z,9.00
2019-02-05T17:45:50.121Z,9.00
2019-02-05T17:48:19.467Z,9.00
2019-02-05T17:50:48.841Z,9.00
2019-02-05T17:53:18.219Z,9.00
2019-02-05T17:55:47.541Z,9.10
2019-02-05T17:58:17.093Z,9.20
2019-02-05T18:00:48.129Z,9.10
2019-02-05T18:03:17.552Z,9.10
2019-02-05T18:05:47.535Z,9.00
2019-02-05T18:08:17.152Z,8.80
2019-02-05T18:10:46.935Z,8.80
2019-02-05T18:13:16.330Z,8.90
2019-02-05T18:15:45.884Z,8.90
2019-02-05T18:18:15.697Z,8.90
2019-02-05T18:20:45.064Z,9.30
2019-02-05T18:23:14.751Z,9.90
2019-02-05T18:25:45.507Z,10.60
2019-02-05T18:28:15.513Z,11.10
2019-02-05T18:30:44.976Z,11.70
2019-02-05T18:33:14.482Z,12.00
2019-02-05T18:35:44.348Z,12.20
2019-02-05T18:38:16.257Z,12.20
2019-02-05T18:40:45.630Z,12.20
2019-02-05T18:43:15.604Z,12.20
2019-02-05T18:45:45.002Z,12.00
2019-02-05T18:48:14.321Z,12.00
2019-02-05T18:50:43.777Z,12.00
2019-02-05T18:53:13.267Z,12.00
2019-02-05T18:55:45.101Z,12.00
2019-02-05T18:58:14.530Z,11.90
2019-02-05T19:00:47.494Z,11.90
2019-02-05T19:03:16.944Z,11.90
2019-02-05T19:05:46.929Z,11.90
2019-02-05T19:08:16.925Z,11.90
2019-02-05T19:10:47.368Z,12.00
2019-02-05T19:13:16.754Z,11.90
2019-02-05T19:15:46.976Z,11.90
2019-02-05T19:18:17.333Z,11.70
2019-02-05T19:20:47.843Z,11.70
2019-02-05T19:23:17.194Z,11.60
2019-02-05T19:25:54.618Z,11.40
2019-02-05T19:28:25.979Z,11.20
2019-02-05T19:30:59.706Z,11.20
2019-02-05T19:33:29.071Z,11.30
2019-02-05T19:35:58.401Z,11.30
2019-02-05T19:38:27.820Z,11.40
2019-02-05T19:40:58.383Z,11.40
2019-02-05T19:43:27.795Z,11.40
2019-02-05T19:45:59.265Z,11.40
2019-02-05T19:48:49.016Z,11.40
2019-02-05T19:51:17.854Z,11.30
2019-02-05T19:53:47.342Z,11.30
2019-02-05T19:56:16.778Z,11.30
2019-02-05T19:58:46.882Z,11.20
2019-02-05T20:01:18.457Z,11.00
2019-02-05T20:03:47.692Z,11.00
2019-02-05T20:06:17.321Z,11.00
2019-02-05T20:08:46.748Z,11.00
2019-02-05T20:11:17.100Z,10.90
2019-02-05T20:13:46.536Z,10.80
2019-02-05T20:16:16.038Z,10.90
2019-02-05T20:18:45.990Z,10.80
2019-02-05T20:21:15.901Z,10.70
2019-02-05T20:23:45.437Z,10.70
2019-02-05T20:26:14.921Z,10.80
2019-02-05T20:28:44.827Z,10.80
2019-02-05T20:31:14.555Z,10.90
2019-02-05T20:33:49.837Z,10.90
2019-02-05T20:36:15.970Z,10.90
2019-02-05T20:38:45.506Z,10.90
2019-02-05T20:41:14.997Z,10.80
2019-02-05T20:43:45.748Z,10.90
2019-02-05T20:46:15.775Z,10.80
2019-02-05T20:48:45.784Z,10.90
2019-02-05T20:51:15.830Z,10.90
2019-02-05T20:53:45.619Z,10.80
2019-02-05T20:56:15.002Z,10.80
2019-02-05T20:58:44.933Z,10.50
2019-02-05T21:01:15.266Z,10.40
2019-02-05T21:03:45.153Z,10.30
2019-02-05T21:06:14.671Z,10.20
2019-02-05T21:08:44.617Z,10.20
2019-02-05T21:11:14.140Z,10.30
2019-02-05T21:13:44.047Z,10.20
2019-02-05T21:16:13.787Z,10.30
2019-02-05T21:18:43.246Z,10.30
2019-02-05T21:21:13.138Z,10.20
2019-02-05T21:23:42.728Z,10.20
2019-02-05T21:26:12.330Z,10.20
2019-02-05T21:28:42.281Z,10.20
2019-02-05T21:31:12.308Z,10.20
2019-02-05T21:33:41.792Z,10.20
2019-02-05T21:36:11.265Z,10.20
2019-02-05T21:38:41.228Z,10.10
2019-02-05T21:41:11.148Z,10.10
2019-02-05T21:43:40.606Z,10.10
2019-02-05T21:46:10.670Z,10.10
2019-02-05T21:48:40.553Z,10.00
2019-02-05T21:51:10.116Z,10.00
2019-02-05T21:53:40.088Z,9.90
2019-02-05T21:56:09.579Z,10.00
2019-02-05T21:58:39.031Z,10.10
2019-02-05T22:01:09.026Z,9.90
2019-02-05T22:03:38.576Z,9.90
2019-02-05T22:06:08.076Z,9.90
2019-02-05T22:08:37.798Z,9.90
2019-02-05T22:11:07.569Z,9.80
2019-02-05T22:13:37.168Z,9.80
2019-02-05T22:16:06.834Z,9.80
2019-02-05T22:18:36.223Z,9.80
2019-02-05T22:21:05.935Z,9.80
2019-02-05T22:23:35.436Z,9.90
2019-02-05T22:26:05.381Z,10.00
2019-02-05T22:28:34.738Z,10.00
2019-02-05T22:31:04.244Z,10.00
2019-02-05T22:33:34.037Z,9.90
2019-02-05T22:36:03.774Z,9.70
2019-02-05T22:38:33.490Z,9.60
2019-02-05T22:41:03.038Z,9.60
2019-02-05T22:43:32.502Z,9.60
2019-02-05T22:46:01.878Z,9.70
2019-02-05T22:48:32.152Z,9.70
2019-02-05T22:51:01.558Z,9.80
2019-02-05T22:53:31.676Z,9.80
2019-02-05T22:56:20.559Z,9.80
2019-02-05T22:58:50.468Z,9.80
2019-02-05T23:01:38.410Z,9.80
2019-02-05T23:04:10.367Z,9.70
2019-02-05T23:06:58.565Z,9.60
2019-02-05T23:09:31.308Z,9.60
2019-02-05T23:12:19.407Z,9.60
2019-02-05T23:14:54.868Z,9.60
2019-02-05T23:17:24.409Z,9.40
2019-02-05T23:19:53.878Z,9.30
2019-02-05T23:22:23.682Z,9.40
2019-02-05T23:24:53.164Z,9.50
2019-02-05T23:27:22.950Z,9.40
2019-02-05T23:29:52.409Z,9.50
2019-02-05T23:32:21.881Z,9.50
2019-02-05T23:35:01.854Z,9.50
2019-02-05T23:37:22.386Z,9.40
2019-02-05T23:39:51.772Z,9.20
2019-02-05T23:42:21.787Z,9.10
2019-02-05T23:44:51.684Z,9.20
2019-02-05T23:47:21.095Z,9.20
2019-02-05T23:49:50.791Z,9.20
2019-02-05T23:52:20.430Z,9.20
2019-02-05T23:54:49.880Z,9.20
2019-02-05T23:57:20.040Z,9.20
2019-02-05T23:59:49.445Z,9.10
